Alva, Mississippi
Current Conditions -  °F | °C
As of 11:55 AM on Saturday 22 Nov 2014 (Local Time) from KGNF Reporting Station
Overcast Overcast  
Wind Chill: 64°   Ceiling: 11000
Heat Index: 64°   Visibility: 10mi
Dew Point: 43°   Wind: 14mph
Humidity: 45%   Direction: 160°SSE
Pressure: 30.19"   Gusts: 18mph
Location:  33.6702°N, 89.6861°W
Report Text: KGNF 221755Z AUTO 16012G16KT 10SM OVC110 18/06 A3019 RMK AO2
Loading
Personal Weather Stations






























Interactive Weather Map New forecast layout! Learn more

10-Day Weather Forecast

Advertisements
Track Severe Weather on mobile